createdAt,value
2023-01-02T08:41:55.957Z,100.00
2023-01-02T08:47:55.667Z,100.00
2023-01-02T08:50:22.941Z,100.00
2023-01-02T08:55:34.172Z,100.00
2023-01-02T08:58:01.576Z,100.00
2023-01-02T09:00:28.893Z,100.00
2023-01-02T09:02:56.326Z,100.00
2023-01-02T09:05:23.682Z,100.00
2023-01-02T09:07:51.014Z,100.00
2023-01-02T09:10:18.303Z,100.00
2023-01-02T09:12:45.625Z,100.00
2023-01-02T09:15:12.950Z,100.00
2023-01-02T09:17:40.284Z,100.00
2023-01-02T09:20:08.117Z,100.00
2023-01-02T09:22:35.407Z,100.00
2023-01-02T09:25:02.736Z,100.00
2023-01-02T09:27:30.088Z,100.00
2023-01-02T09:29:57.376Z,100.00
2023-01-02T09:32:24.765Z,100.00
2023-01-02T09:34:52.040Z,100.00
2023-01-02T09:37:19.448Z,100.00
2023-01-02T09:39:46.738Z,100.00
2023-01-02T09:42:17.180Z,100.00
2023-01-02T09:45:06.457Z,100.00
2023-01-02T09:47:39.260Z,100.00
2023-01-02T09:50:24.756Z,100.00
2023-01-02T09:53:00.191Z,100.00
2023-01-02T09:56:22.715Z,100.00
2023-01-02T09:59:18.548Z,100.00
2023-01-02T10:02:30.529Z,100.00
2023-01-02T10:06:03.920Z,100.00
2023-01-02T10:09:17.854Z,100.00
2023-01-02T10:12:15.342Z,100.00
2023-01-02T10:15:04.181Z,100.00
2023-01-02T10:17:48.360Z,100.00
2023-01-02T10:20:24.034Z,100.00
2023-01-02T10:23:01.919Z,100.00
2023-01-02T10:25:44.668Z,100.00
2023-01-02T10:28:58.244Z,100.00
2023-01-02T10:31:53.212Z,100.00
2023-01-02T10:34:24.253Z,100.00
2023-01-02T10:36:52.450Z,100.00
2023-01-02T10:39:27.849Z,100.00
2023-01-02T10:41:59.646Z,100.00
2023-01-02T10:44:38.470Z,100.00
2023-01-02T10:47:36.832Z,100.00
2023-01-02T10:50:28.125Z,100.00
2023-01-02T10:53:37.476Z,100.00
2023-01-02T10:56:14.647Z,100.00
2023-01-02T10:58:49.602Z,100.00
2023-01-02T11:01:22.020Z,100.00
2023-01-02T11:04:13.307Z,100.00
2023-01-02T11:06:58.708Z,100.00
2023-01-02T11:09:37.930Z,100.00
2023-01-02T11:12:12.004Z,100.00
2023-01-02T11:14:40.078Z,99.11
2023-01-02T11:17:20.692Z,98.22
2023-01-02T11:19:52.215Z,92.30
2023-01-02T11:22:32.977Z,89.43
2023-01-02T11:25:13.310Z,85.99
2023-01-02T11:27:44.884Z,83.78
2023-01-02T11:30:51.371Z,81.75
2023-01-02T11:33:32.205Z,79.76
2023-01-02T11:36:05.368Z,77.80
2023-01-02T11:38:56.688Z,75.22
2023-01-02T11:42:07.386Z,73.17
2023-01-02T11:45:16.915Z,70.54
2023-01-02T11:48:02.753Z,67.45
2023-01-02T11:50:36.734Z,67.97
2023-01-02T11:53:12.955Z,66.88
2023-01-02T11:56:24.548Z,65.06
2023-01-02T11:59:33.811Z,64.18
2023-01-02T12:02:29.901Z,62.88
2023-01-02T12:04:57.480Z,61.82
2023-01-02T12:07:53.003Z,61.91
2023-01-02T12:11:19.932Z,60.41
2023-01-02T12:14:19.345Z,60.22
2023-01-02T12:16:51.659Z,60.21
2023-01-02T12:19:52.870Z,59.93
2023-01-02T12:22:57.524Z,60.37
2023-01-02T12:26:15.558Z,59.14
2023-01-02T12:29:46.867Z,60.69
2023-01-02T12:33:31.940Z,60.15
2023-01-02T12:36:24.176Z,60.96
2023-01-02T12:40:09.083Z,60.26
2023-01-02T12:43:23.603Z,61.44
2023-01-02T12:47:15.887Z,61.14
2023-01-02T12:50:21.381Z,61.81
2023-01-02T12:53:20.305Z,62.07
2023-01-02T12:56:38.690Z,63.66
2023-01-02T13:00:09.325Z,62.64
2023-01-02T13:03:26.981Z,63.30
2023-01-02T13:06:45.667Z,63.26
2023-01-02T13:09:32.319Z,62.47
2023-01-02T13:12:19.597Z,62.54
2023-01-02T13:15:08.605Z,62.60
2023-01-02T13:17:50.479Z,62.58
2023-01-02T13:20:35.991Z,63.21
2023-01-02T13:23:43.427Z,63.26
2023-01-02T13:26:19.147Z,64.05
2023-01-02T13:29:08.252Z,63.38
2023-01-02T13:31:46.963Z,63.19
2023-01-02T13:34:32.099Z,64.38
2023-01-02T13:37:16.154Z,65.27
2023-01-02T13:39:43.476Z,64.63
2023-01-02T13:42:51.268Z,65.16
2023-01-02T13:45:37.603Z,61.90
2023-01-02T13:48:38.785Z,59.90
2023-01-02T13:51:30.163Z,59.55
2023-01-02T13:53:57.659Z,59.25
2023-01-02T13:56:29.011Z,59.21
2023-01-02T13:59:42.609Z,59.36
2023-01-02T14:02:21.133Z,59.21
2023-01-02T14:04:49.391Z,59.92
2023-01-02T14:07:25.728Z,60.32
2023-01-02T14:10:44.073Z,61.05
2023-01-02T14:13:27.878Z,61.69
2023-01-02T14:16:42.907Z,62.44
2023-01-02T14:19:13.065Z,62.93
2023-01-02T14:22:00.282Z,63.53
2023-01-02T14:24:42.368Z,63.99
2023-01-02T14:27:15.598Z,64.92
2023-01-02T14:29:58.538Z,66.13
2023-01-02T14:32:34.743Z,67.33
2023-01-02T14:35:29.069Z,67.87
2023-01-02T14:38:15.434Z,69.64
2023-01-02T14:40:45.974Z,72.07
2023-01-02T14:43:36.466Z,72.69
2023-01-02T14:46:25.353Z,74.53
2023-01-02T14:49:27.811Z,79.11
2023-01-02T14:52:07.046Z,90.62
2023-01-02T14:55:03.268Z,90.86
2023-01-02T14:57:39.547Z,91.62
2023-01-02T15:00:32.318Z,94.25
2023-01-02T15:04:03.177Z,95.30
2023-01-02T15:06:42.763Z,97.75
2023-01-02T15:09:36.715Z,100.00
2023-01-02T15:12:44.406Z,100.00
2023-01-02T15:15:25.564Z,100.00
2023-01-02T15:18:04.155Z,100.00
2023-01-02T15:20:34.283Z,100.00
2023-01-02T15:23:02.260Z,100.00
2023-01-02T15:25:37.105Z,100.00
2023-01-02T15:28:07.643Z,100.00
2023-01-02T15:30:40.474Z,100.00
2023-01-02T15:33:33.959Z,100.00
2023-01-02T15:36:16.160Z,100.00
2023-01-02T15:38:44.199Z,100.00
2023-01-02T15:41:20.173Z,100.00
2023-01-02T15:44:08.005Z,100.00
2023-01-02T15:46:35.570Z,100.00
2023-01-02T15:49:04.915Z,100.00
2023-01-02T15:51:39.775Z,100.00
2023-01-02T15:54:16.586Z,100.00
2023-01-02T15:56:44.351Z,100.00
2023-01-02T15:59:35.188Z,100.00
2023-01-02T16:02:03.188Z,100.00
2023-01-02T16:04:33.780Z,100.00
2023-01-02T16:07:26.560Z,100.00
2023-01-02T16:09:56.488Z,100.00
2023-01-02T16:12:24.484Z,100.00
2023-01-02T16:14:57.173Z,100.00
2023-01-02T16:17:31.706Z,100.00
2023-01-02T16:20:21.664Z,100.00
2023-01-02T16:23:03.596Z,100.00
2023-01-02T16:25:53.063Z,100.00
2023-01-02T16:28:34.735Z,100.00
2023-01-02T16:31:23.114Z,100.00
2023-01-02T16:33:51.189Z,100.00
2023-01-02T16:36:24.714Z,100.00
2023-01-02T16:39:01.523Z,100.00
2023-01-02T16:41:34.565Z,100.00
2023-01-02T16:44:20.751Z,100.00
2023-01-02T16:46:50.506Z,100.00
2023-01-02T16:49:23.456Z,100.00
2023-01-02T16:51:54.177Z,100.00
2023-01-02T16:54:21.831Z,100.00
2023-01-02T16:56:49.881Z,100.00
2023-01-02T16:59:17.224Z,100.00
2023-01-02T17:01:44.685Z,100.00
2023-01-02T17:04:17.145Z,100.00
2023-01-02T17:06:44.493Z,100.00
2023-01-02T17:09:11.770Z,100.00
2023-01-02T17:11:59.346Z,100.00
2023-01-02T17:14:29.968Z,100.00
2023-01-02T17:16:57.690Z,100.00
2023-01-02T17:19:25.224Z,100.00
2023-01-02T17:21:52.809Z,100.00
2023-01-02T17:24:20.226Z,100.00
2023-01-02T17:26:47.829Z,100.00
2023-01-02T17:29:15.180Z,100.00
2023-01-02T17:31:42.606Z,100.00
2023-01-02T17:34:10.062Z,100.00
2023-01-02T17:36:37.383Z,100.00
2023-01-02T17:39:04.747Z,100.00
2023-01-02T17:41:32.166Z,100.00
2023-01-02T17:44:02.127Z,100.00
2023-01-02T17:49:20.986Z,100.00
2023-01-02T17:51:48.452Z,100.00
2023-01-02T17:54:15.764Z,100.00
2023-01-02T17:56:43.540Z,100.00
2023-01-02T17:59:12.112Z,100.00
2023-01-02T18:01:39.801Z,100.00
2023-01-02T18:04:07.202Z,100.00
2023-01-02T18:06:34.580Z,100.00
2023-01-02T18:09:02.357Z,100.00
2023-01-02T18:11:29.667Z,100.00
2023-01-02T18:13:58.263Z,100.00
2023-01-02T18:16:39.141Z,100.00
2023-01-02T18:19:22.476Z,100.00
2023-01-02T18:21:50.609Z,100.00
2023-01-02T18:24:32.187Z,100.00
2023-01-02T18:27:27.347Z,100.00
2023-01-02T18:30:12.710Z,100.00
2023-01-02T18:32:43.092Z,100.00
2023-01-02T18:38:35.858Z,100.00
2023-01-02T18:41:27.636Z,100.00
2023-01-02T18:44:14.723Z,100.00
2023-01-02T18:47:02.984Z,100.00
2023-01-02T18:49:43.742Z,100.00
2023-01-02T18:52:10.802Z,100.00
2023-01-02T18:54:50.908Z,100.00
2023-01-02T18:57:23.342Z,100.00
2023-01-02T18:59:52.172Z,100.00
2023-01-02T19:02:45.729Z,100.00
2023-01-02T19:05:44.237Z,100.00
2023-01-02T19:08:39.024Z,100.00
2023-01-02T19:11:47.712Z,100.00
2023-01-02T19:14:26.126Z,100.00
2023-01-02T19:17:15.544Z,100.00
2023-01-02T19:19:43.628Z,100.00
2023-01-02T19:22:24.369Z,100.00
2023-01-02T19:24:51.817Z,100.00
2023-01-02T19:27:36.534Z,100.00
2023-01-02T19:30:31.633Z,100.00
2023-01-02T19:32:59.045Z,100.00
2023-01-02T19:35:29.217Z,100.00
2023-01-02T19:37:57.334Z,100.00
2023-01-02T19:40:24.698Z,100.00
